createdAt,value
2023-12-01T00:01:50.858Z,30.38
2023-12-01T00:04:17.704Z,27.10
2023-12-01T00:06:44.778Z,28.42
2023-12-01T00:09:11.611Z,29.00
2023-12-01T00:11:38.446Z,28.58
2023-12-01T00:14:05.199Z,27.13
2023-12-01T00:16:32.467Z,26.77
2023-12-01T00:18:59.487Z,23.50
2023-12-01T00:21:26.400Z,20.98
2023-12-01T00:23:53.181Z,25.10
2023-12-01T00:26:20.026Z,24.73
2023-12-01T00:28:53.955Z,26.83
2023-12-01T00:31:21.212Z,25.65
2023-12-01T00:33:48.102Z,24.50
2023-12-01T00:36:15.018Z,22.05
2023-12-01T00:38:41.838Z,24.83
2023-12-01T00:41:08.632Z,23.77
2023-12-01T00:43:35.834Z,27.83
2023-12-01T00:46:02.713Z,29.92
2023-12-01T00:48:30.840Z,23.02
2023-12-01T00:50:58.121Z,28.92
2023-12-01T00:53:25.437Z,25.65
2023-12-01T00:55:52.395Z,22.50
2023-12-01T00:58:19.407Z,23.17
2023-12-01T01:00:46.429Z,19.45
2023-12-01T01:03:14.209Z,21.85
2023-12-01T01:05:41.188Z,20.15
2023-12-01T01:08:08.436Z,20.48
2023-12-01T01:10:35.268Z,20.10
2023-12-01T01:13:02.103Z,22.30
2023-12-01T01:15:29.144Z,20.20
2023-12-01T01:17:55.943Z,19.92
2023-12-01T01:20:22.804Z,21.52
2023-12-01T01:22:49.609Z,19.95
2023-12-01T01:25:16.486Z,17.73
2023-12-01T01:27:43.687Z,17.63
2023-12-01T01:30:10.788Z,20.08
2023-12-01T01:32:38.032Z,17.75
2023-12-01T01:35:05.250Z,21.77
2023-12-01T01:37:32.208Z,19.20
2023-12-01T01:39:59.034Z,16.98
2023-12-01T01:42:26.055Z,15.82
2023-12-01T01:44:52.792Z,16.13
2023-12-01T01:47:19.925Z,16.20
2023-12-01T01:49:47.123Z,16.48
2023-12-01T01:52:13.981Z,14.73
2023-12-01T01:54:41.006Z,14.65
2023-12-01T01:57:08.493Z,19.38
2023-12-01T01:59:35.331Z,15.57
2023-12-01T02:02:02.168Z,15.05
2023-12-01T02:04:29.007Z,15.05
2023-12-01T02:06:56.235Z,16.77
2023-12-01T02:09:23.837Z,15.75
2023-12-01T02:11:50.847Z,18.08
2023-12-01T02:14:17.830Z,17.83
2023-12-01T02:16:47.886Z,18.40
2023-12-01T02:19:15.553Z,19.13
2023-12-01T02:21:49.453Z,18.95
2023-12-01T02:24:16.382Z,21.17
2023-12-01T02:26:43.571Z,20.55
2023-12-01T02:29:10.680Z,19.52
2023-12-01T02:31:37.746Z,16.27
2023-12-01T02:34:05.265Z,17.38
2023-12-01T02:36:32.475Z,15.60
2023-12-01T02:38:59.600Z,13.95
2023-12-01T02:41:26.647Z,13.43
2023-12-01T02:43:54.485Z,11.68
2023-12-01T02:46:24.348Z,12.52
2023-12-01T02:48:51.953Z,12.93
2023-12-01T02:51:19.049Z,14.02
2023-12-01T02:53:45.922Z,12.93
2023-12-01T02:56:13.154Z,14.02
2023-12-01T02:58:39.956Z,14.00
2023-12-01T03:01:07.042Z,15.27
2023-12-01T03:03:33.987Z,14.85
2023-12-01T03:06:00.861Z,13.27
2023-12-01T03:08:28.383Z,12.60
2023-12-01T03:10:55.763Z,13.68
2023-12-01T03:13:23.609Z,12.35
2023-12-01T03:15:51.127Z,11.05
2023-12-01T03:18:21.960Z,12.25
2023-12-01T03:20:50.401Z,12.27
2023-12-01T03:23:17.168Z,11.40
2023-12-01T03:25:44.514Z,9.30
2023-12-01T03:28:16.286Z,11.95
2023-12-01T03:30:43.666Z,10.32
2023-12-01T03:33:13.590Z,10.35
2023-12-01T03:35:41.048Z,9.63
2023-12-01T03:38:07.993Z,10.63
2023-12-01T03:40:34.795Z,9.80
2023-12-01T03:43:01.736Z,10.48
2023-12-01T03:45:28.604Z,7.93
2023-12-01T03:47:55.622Z,7.60
2023-12-01T03:50:22.835Z,8.48
2023-12-01T03:52:51.578Z,7.05
2023-12-01T03:55:18.807Z,7.88
2023-12-01T03:57:46.403Z,9.55
2023-12-01T04:00:16.630Z,10.02
2023-12-01T04:02:45.842Z,7.30
2023-12-01T04:05:19.817Z,7.03
2023-12-01T04:07:55.161Z,7.40
2023-12-01T04:10:25.952Z,8.40
2023-12-01T04:12:53.464Z,6.25
2023-12-01T04:15:21.445Z,7.55
2023-12-01T04:17:50.611Z,5.82
2023-12-01T04:20:23.472Z,6.03
2023-12-01T04:23:04.085Z,7.20
2023-12-01T04:25:31.026Z,5.07
2023-12-01T04:27:59.235Z,6.25
2023-12-01T04:30:26.728Z,5.07
2023-12-01T04:32:56.930Z,6.40
2023-12-01T04:35:27.947Z,4.63
2023-12-01T04:37:59.398Z,5.00
2023-12-01T04:40:28.686Z,5.40
2023-12-01T04:42:57.187Z,6.78
2023-12-01T04:45:26.588Z,9.68
2023-12-01T04:47:56.418Z,5.00
2023-12-01T04:50:29.480Z,6.30
2023-12-01T04:52:58.261Z,5.78
2023-12-01T04:55:30.390Z,6.00
2023-12-01T04:57:57.868Z,4.32
2023-12-01T05:00:28.308Z,5.47
2023-12-01T05:03:06.579Z,5.03
2023-12-01T05:05:35.403Z,6.18
2023-12-01T05:08:06.530Z,5.07
2023-12-01T05:10:34.752Z,6.50
2023-12-01T05:13:03.976Z,6.18
2023-12-01T05:15:32.647Z,5.45
2023-12-01T05:18:02.016Z,7.10
2023-12-01T05:20:29.882Z,5.68
2023-12-01T05:23:02.366Z,7.15
2023-12-01T05:25:34.108Z,5.88
2023-12-01T05:28:03.470Z,8.32
2023-12-01T05:30:36.144Z,6.05
2023-12-01T05:33:10.900Z,6.57
2023-12-01T05:35:39.109Z,6.82
2023-12-01T05:38:06.193Z,5.47
2023-12-01T05:40:35.737Z,5.10
2023-12-01T05:43:04.833Z,4.97
2023-12-01T05:45:39.505Z,5.25
2023-12-01T05:48:10.777Z,5.50
2023-12-01T05:50:38.899Z,5.28
2023-12-01T05:53:07.903Z,5.35
2023-12-01T05:55:36.980Z,5.40
2023-12-01T05:58:06.755Z,5.43
2023-12-01T06:00:34.369Z,6.30
2023-12-01T06:03:07.554Z,7.25
2023-12-01T06:05:36.636Z,5.75
2023-12-01T06:08:04.637Z,6.57
2023-12-01T06:10:33.657Z,5.95
2023-12-01T06:13:01.452Z,5.97
2023-12-01T06:15:31.361Z,6.35
2023-12-01T06:17:59.748Z,6.03
2023-12-01T06:20:27.250Z,6.50
2023-12-01T06:22:58.394Z,6.72
2023-12-01T06:25:31.122Z,7.07
2023-12-01T06:28:04.059Z,7.65
2023-12-01T06:30:37.028Z,7.75
2023-12-01T06:33:06.654Z,7.13
2023-12-01T06:35:33.832Z,7.13
2023-12-01T06:38:00.820Z,7.15
2023-12-01T06:40:27.776Z,8.15
2023-12-01T06:42:56.267Z,9.20
2023-12-01T06:45:29.608Z,7.57
2023-12-01T06:48:01.657Z,7.40
2023-12-01T06:50:30.089Z,8.40
2023-12-01T06:53:00.475Z,7.25
2023-12-01T06:55:27.745Z,8.02
2023-12-01T06:57:54.752Z,8.65
2023-12-01T07:00:35.154Z,7.78
2023-12-01T07:03:06.020Z,8.40
2023-12-01T07:05:34.422Z,8.70
2023-12-01T07:08:02.467Z,7.38
2023-12-01T07:10:29.952Z,6.65
2023-12-01T07:12:56.921Z,8.48
2023-12-01T07:15:26.199Z,10.50
2023-12-01T07:17:55.794Z,9.43
2023-12-01T07:20:24.139Z,20.50
2023-12-01T07:22:52.867Z,13.90
2023-12-01T07:25:24.564Z,14.02
2023-12-01T07:28:00.926Z,10.32
2023-12-01T07:30:29.120Z,10.93
2023-12-01T07:32:57.554Z,8.20
2023-12-01T07:35:24.730Z,8.50
2023-12-01T07:37:54.372Z,6.78
2023-12-01T07:40:23.496Z,8.07
2023-12-01T07:42:53.145Z,6.65
2023-12-01T07:45:20.996Z,7.10
2023-12-01T07:47:50.121Z,7.68
2023-12-01T07:50:18.852Z,8.43
2023-12-01T07:52:47.006Z,7.00
2023-12-01T07:55:14.257Z,7.90
2023-12-01T07:57:41.605Z,8.50
2023-12-01T08:00:16.520Z,6.47
2023-12-01T08:02:45.028Z,6.57
2023-12-01T08:05:15.508Z,7.20
2023-12-01T08:07:44.202Z,7.13
2023-12-01T08:10:16.221Z,7.65
2023-12-01T08:12:43.709Z,7.60
2023-12-01T08:15:11.063Z,7.07
2023-12-01T08:17:41.406Z,9.52
2023-12-01T08:20:09.035Z,10.98
2023-12-01T08:22:38.372Z,7.50
2023-12-01T08:25:06.580Z,7.82
2023-12-01T08:27:34.217Z,7.95
2023-12-01T08:30:01.747Z,9.73
2023-12-01T08:32:28.803Z,8.20
2023-12-01T08:34:56.080Z,8.13
2023-12-01T08:37:23.067Z,12.85
2023-12-01T08:39:50.924Z,11.75
2023-12-01T08:42:19.434Z,6.93
2023-12-01T08:44:46.788Z,7.50
2023-12-01T08:47:15.021Z,8.00
2023-12-01T08:49:41.957Z,8.10
2023-12-01T08:52:09.136Z,6.47
2023-12-01T08:54:36.338Z,6.05
2023-12-01T08:57:03.655Z,6.70
2023-12-01T08:59:31.232Z,6.50
2023-12-01T09:01:58.191Z,7.10
2023-12-01T09:04:25.440Z,9.65
2023-12-01T09:06:52.388Z,11.25
2023-12-01T09:09:19.548Z,8.52
2023-12-01T09:11:46.457Z,9.05
2023-12-01T09:14:13.283Z,8.77
2023-12-01T09:16:40.059Z,10.20
2023-12-01T09:19:08.122Z,6.70
2023-12-01T09:21:35.329Z,7.05
2023-12-01T09:24:02.293Z,7.43
2023-12-01T09:26:32.853Z,10.90
2023-12-01T09:28:59.662Z,9.80
2023-12-01T09:31:26.858Z,8.32
2023-12-01T09:33:53.800Z,10.23
2023-12-01T09:36:20.648Z,8.80
2023-12-01T09:38:51.181Z,7.15
2023-12-01T09:41:18.305Z,8.18
2023-12-01T09:43:45.979Z,7.03
2023-12-01T09:46:13.795Z,5.43
2023-12-01T09:48:42.882Z,5.15
2023-12-01T09:51:10.074Z,5.03
2023-12-01T09:53:37.640Z,5.55
2023-12-01T09:56:06.745Z,5.60
2023-12-01T09:58:35.904Z,5.53
2023-12-01T10:01:02.726Z,6.55
2023-12-01T10:03:30.200Z,7.03
2023-12-01T10:06:00.642Z,7.65
2023-12-01T10:08:30.774Z,6.47
2023-12-01T10:10:59.533Z,6.07
2023-12-01T10:13:39.223Z,6.65
2023-12-01T10:16:06.480Z,7.07
2023-12-01T10:18:33.471Z,5.90
2023-12-01T10:21:08.587Z,6.80
2023-12-01T10:23:38.034Z,6.32
2023-12-01T10:26:07.971Z,6.05
2023-12-01T10:28:44.584Z,6.45
2023-12-01T10:31:16.373Z,9.13
2023-12-01T10:33:43.526Z,5.97
2023-12-01T10:36:11.572Z,6.97
2023-12-01T10:38:38.634Z,6.53
2023-12-01T10:41:06.792Z,10.13
2023-12-01T10:43:35.190Z,7.05
2023-12-01T10:46:07.119Z,4.57
2023-12-01T10:48:36.208Z,5.22
2023-12-01T10:51:07.440Z,5.25
2023-12-01T10:53:36.415Z,4.97
2023-12-01T10:56:05.644Z,5.30
2023-12-01T10:58:36.016Z,7.32
2023-12-01T11:01:03.741Z,4.70
2023-12-01T11:03:33.545Z,5.68
2023-12-01T11:06:05.370Z,5.93
2023-12-01T11:09:09.605Z,4.90
2023-12-01T11:11:48.583Z,6.07
2023-12-01T11:14:21.507Z,5.03
2023-12-01T11:16:49.255Z,4.50
2023-12-01T11:19:17.676Z,4.93
2023-12-01T11:21:45.410Z,4.60
2023-12-01T11:24:33.349Z,5.75
2023-12-01T11:27:08.512Z,4.90
2023-12-01T11:29:37.583Z,5.47
2023-12-01T11:32:05.560Z,4.60
2023-12-01T11:34:33.269Z,4.20
2023-12-01T11:37:03.485Z,4.68
2023-12-01T11:39:31.118Z,4.45
2023-12-01T11:42:03.703Z,4.85
2023-12-01T11:44:42.229Z,5.90
2023-12-01T11:47:13.591Z,4.53
2023-12-01T11:49:43.398Z,5.05
2023-12-01T11:52:20.029Z,5.38
2023-12-01T11:54:51.266Z,5.50
2023-12-01T11:57:20.052Z,6.60
2023-12-01T11:59:49.225Z,6.22
2023-12-01T12:02:16.491Z,6.82
2023-12-01T12:04:49.924Z,7.18
2023-12-01T12:07:20.253Z,7.80
2023-12-01T12:09:48.056Z,8.68
2023-12-01T12:12:16.192Z,8.82
2023-12-01T12:14:43.958Z,8.60
2023-12-01T12:17:11.054Z,8.02
2023-12-01T12:19:44.992Z,8.10
2023-12-01T12:22:15.351Z,8.00
2023-12-01T12:24:44.817Z,13.23
2023-12-01T12:27:11.974Z,10.10
2023-12-01T12:29:38.827Z,8.77
2023-12-01T12:32:06.965Z,8.68
2023-12-01T12:34:34.646Z,8.63
2023-12-01T12:37:01.927Z,10.75
2023-12-01T12:39:29.599Z,8.98
2023-12-01T12:42:01.262Z,9.05
2023-12-01T12:44:31.978Z,8.95
2023-12-01T12:47:04.180Z,9.90
2023-12-01T12:49:35.557Z,8.38
2023-12-01T12:52:04.352Z,9.85
2023-12-01T12:54:32.098Z,8.68
2023-12-01T12:56:59.226Z,12.23
2023-12-01T12:59:26.125Z,12.30
2023-12-01T13:01:53.673Z,12.25
2023-12-01T13:04:22.249Z,6.70
2023-12-01T13:06:50.551Z,6.43
2023-12-01T13:09:18.952Z,5.82
2023-12-01T13:11:46.391Z,6.30
2023-12-01T13:14:15.002Z,6.75
2023-12-01T13:16:52.245Z,6.03
2023-12-01T13:19:23.940Z,5.97
2023-12-01T13:21:55.469Z,6.13
2023-12-01T13:24:23.927Z,4.55
2023-12-01T13:26:51.361Z,5.15
2023-12-01T13:29:19.087Z,5.88
2023-12-01T13:31:47.083Z,7.78
2023-12-01T13:34:14.010Z,5.78
2023-12-01T13:36:40.793Z,5.30
2023-12-01T13:39:07.630Z,4.50
2023-12-01T13:41:34.448Z,6.10
2023-12-01T13:44:01.177Z,5.07
2023-12-01T13:46:28.054Z,7.22
2023-12-01T13:48:54.919Z,4.32
2023-12-01T13:51:21.790Z,4.75
2023-12-01T13:53:48.652Z,4.05
2023-12-01T13:56:15.485Z,3.22
2023-12-01T13:58:44.835Z,6.22
2023-12-01T14:01:14.435Z,3.97
2023-12-01T14:03:41.910Z,5.53
2023-12-01T14:06:09.540Z,5.68
2023-12-01T14:08:36.521Z,5.18
2023-12-01T14:11:04.236Z,4.85
2023-12-01T14:13:31.742Z,4.68
2023-12-01T14:15:59.179Z,5.85
2023-12-01T14:18:26.866Z,5.47
2023-12-01T14:20:54.267Z,3.97
2023-12-01T14:23:21.148Z,5.65
2023-12-01T14:25:47.954Z,3.90
2023-12-01T14:28:15.183Z,3.60
2023-12-01T14:30:42.176Z,3.40
2023-12-01T14:33:09.464Z,4.38
2023-12-01T14:35:36.521Z,4.68
2023-12-01T14:38:03.926Z,3.97
2023-12-01T14:40:30.684Z,3.60
2023-12-01T14:42:57.574Z,3.40
2023-12-01T14:45:26.357Z,5.70
2023-12-01T14:47:53.554Z,4.28
2023-12-01T14:50:20.373Z,3.70
2023-12-01T14:52:47.549Z,3.63
2023-12-01T14:55:14.555Z,6.35
2023-12-01T14:57:41.421Z,4.15
2023-12-01T15:00:12.109Z,3.92
2023-12-01T15:02:39.647Z,4.03
2023-12-01T15:05:07.273Z,4.13
2023-12-01T15:07:35.081Z,4.38
2023-12-01T15:10:02.099Z,3.40
2023-12-01T15:12:29.010Z,4.63
2023-12-01T15:14:56.168Z,4.25
2023-12-01T15:17:23.879Z,3.67
2023-12-01T15:19:51.526Z,4.25
2023-12-01T15:22:19.116Z,4.65
2023-12-01T15:24:46.015Z,4.93
2023-12-01T15:27:15.746Z,5.70
2023-12-01T15:29:42.568Z,4.60
2023-12-01T15:32:09.339Z,5.50
2023-12-01T15:34:36.132Z,5.18
2023-12-01T15:37:03.810Z,4.40
2023-12-01T15:39:32.639Z,4.32
2023-12-01T15:42:00.467Z,5.15
2023-12-01T15:44:27.348Z,6.75
2023-12-01T15:46:54.485Z,4.75
2023-12-01T15:49:22.034Z,5.13
2023-12-01T15:51:48.914Z,4.75
2023-12-01T15:54:15.914Z,4.50
2023-12-01T15:56:42.696Z,4.40
2023-12-01T15:59:10.419Z,5.38
2023-12-01T16:01:37.308Z,5.63
2023-12-01T16:04:05.560Z,5.25
2023-12-01T16:06:32.629Z,4.70
2023-12-01T16:08:59.721Z,4.15
2023-12-01T16:11:26.519Z,4.68
2023-12-01T16:13:53.885Z,4.70
2023-12-01T16:16:21.392Z,5.88
2023-12-01T16:18:48.358Z,5.00
2023-12-01T16:21:27.504Z,4.28
2023-12-01T16:23:55.396Z,6.15
2023-12-01T16:26:22.733Z,4.13
2023-12-01T16:28:52.634Z,7.28
2023-12-01T16:31:19.584Z,6.10
2023-12-01T16:33:46.617Z,4.57
2023-12-01T16:36:30.911Z,7.72
2023-12-01T16:39:00.920Z,5.97
2023-12-01T16:41:27.806Z,6.05
2023-12-01T16:43:54.607Z,5.10
2023-12-01T16:46:21.381Z,6.15
2023-12-01T16:48:48.594Z,6.10
2023-12-01T16:51:15.584Z,4.63
2023-12-01T16:53:44.630Z,4.90
2023-12-01T16:56:11.878Z,4.45
2023-12-01T16:58:38.776Z,4.25
2023-12-01T17:01:05.879Z,7.07
2023-12-01T17:03:36.456Z,4.97
2023-12-01T17:06:05.897Z,4.45
2023-12-01T17:08:32.640Z,5.20
2023-12-01T17:10:59.440Z,3.85
2023-12-01T17:13:26.238Z,4.78
2023-12-01T17:15:53.045Z,3.80
2023-12-01T17:18:20.843Z,4.85
2023-12-01T17:20:47.666Z,6.18
2023-12-01T17:23:17.132Z,4.70
2023-12-01T17:25:44.463Z,7.85
2023-12-01T17:28:15.089Z,7.55
2023-12-01T17:30:42.232Z,6.03
2023-12-01T17:33:09.319Z,9.88
2023-12-01T17:35:36.558Z,7.70
2023-12-01T17:38:03.449Z,5.82
2023-12-01T17:40:30.245Z,5.70
2023-12-01T17:42:57.069Z,5.95
2023-12-01T17:45:23.806Z,8.52
2023-12-01T17:47:50.770Z,12.65
2023-12-01T17:50:17.634Z,10.80
2023-12-01T17:52:44.511Z,7.63
2023-12-01T17:55:12.337Z,7.32
2023-12-01T17:57:39.079Z,6.25
2023-12-01T18:00:06.510Z,6.38
2023-12-01T18:02:39.326Z,8.40
2023-12-01T18:05:06.478Z,9.63
2023-12-01T18:07:33.457Z,6.57
2023-12-01T18:10:00.441Z,6.57
2023-12-01T18:12:27.326Z,8.55
2023-12-01T18:14:54.351Z,7.65
2023-12-01T18:17:21.296Z,7.50
2023-12-01T18:19:48.504Z,8.23
2023-12-01T18:22:15.337Z,8.23
2023-12-01T18:24:42.121Z,8.93
2023-12-01T18:27:09.216Z,12.27
2023-12-01T18:29:35.960Z,13.73
2023-12-01T18:32:02.790Z,10.13
2023-12-01T18:34:29.762Z,7.85
2023-12-01T18:36:59.348Z,7.43
2023-12-01T18:39:28.522Z,6.85
2023-12-01T18:41:55.434Z,9.65
2023-12-01T18:44:22.752Z,8.70
2023-12-01T18:46:49.577Z,7.55
2023-12-01T18:49:17.512Z,8.10
2023-12-01T18:51:45.031Z,7.75
2023-12-01T18:54:12.583Z,7.38
2023-12-01T18:56:42.719Z,8.18
2023-12-01T18:59:10.514Z,11.50
2023-12-01T19:01:37.510Z,12.45
2023-12-01T19:04:06.239Z,10.73
2023-12-01T19:06:33.714Z,13.20
2023-12-01T19:09:00.743Z,10.75
2023-12-01T19:11:27.570Z,10.10
2023-12-01T19:13:54.752Z,12.43
2023-12-01T19:16:22.005Z,11.98
2023-12-01T19:18:48.954Z,9.85
2023-12-01T19:21:16.040Z,9.45
2023-12-01T19:23:43.171Z,8.43
2023-12-01T19:26:09.981Z,7.88
2023-12-01T19:28:36.897Z,8.77
2023-12-01T19:31:03.727Z,8.30
2023-12-01T19:33:30.718Z,8.32
2023-12-01T19:35:58.109Z,9.02
2023-12-01T19:38:25.011Z,10.90
2023-12-01T19:40:51.887Z,10.27
2023-12-01T19:43:19.211Z,9.27
2023-12-01T19:45:46.771Z,9.13
2023-12-01T19:48:18.854Z,9.50
2023-12-01T19:50:47.619Z,9.90
2023-12-01T19:53:14.430Z,8.48
2023-12-01T19:55:41.204Z,9.30
2023-12-01T19:58:08.615Z,9.32
2023-12-01T20:00:35.748Z,10.60
2023-12-01T20:03:02.824Z,8.32
2023-12-01T20:05:29.889Z,9.02
2023-12-01T20:07:57.734Z,8.65
2023-12-01T20:10:24.559Z,8.25
2023-12-01T20:12:51.383Z,12.27
2023-12-01T20:15:18.590Z,10.55
2023-12-01T20:17:45.583Z,9.45
2023-12-01T20:20:12.419Z,12.82
2023-12-01T20:22:39.245Z,8.82
2023-12-01T20:25:06.963Z,8.55
2023-12-01T20:27:33.846Z,9.75
2023-12-01T20:30:01.154Z,8.98
2023-12-01T20:32:28.403Z,9.45
2023-12-01T20:34:55.795Z,10.88
2023-12-01T20:37:22.644Z,9.68
2023-12-01T20:39:49.436Z,9.82
2023-12-01T20:42:16.494Z,9.70
2023-12-01T20:44:43.440Z,11.80
2023-12-01T20:47:10.262Z,10.52
2023-12-01T20:49:39.383Z,8.13
2023-12-01T20:52:07.931Z,9.38
2023-12-01T20:54:38.013Z,9.68
2023-12-01T20:57:05.223Z,8.02
2023-12-01T20:59:32.067Z,8.95
2023-12-01T21:01:58.932Z,8.10
2023-12-01T21:04:25.925Z,8.55
2023-12-01T21:06:53.123Z,9.10
2023-12-01T21:09:22.705Z,10.68
2023-12-01T21:11:49.804Z,9.93
2023-12-01T21:14:16.788Z,9.65
2023-12-01T21:16:43.581Z,10.52
2023-12-01T21:19:10.486Z,10.02
2023-12-01T21:21:37.453Z,9.35
2023-12-01T21:24:04.729Z,9.55
2023-12-01T21:26:31.600Z,9.73
2023-12-01T21:28:58.370Z,8.95
2023-12-01T21:31:25.279Z,10.75
2023-12-01T21:33:52.682Z,9.55
2023-12-01T21:36:19.734Z,11.68
2023-12-01T21:38:48.114Z,10.93
2023-12-01T21:41:18.496Z,13.35
2023-12-01T21:43:45.966Z,10.30
2023-12-01T21:46:12.815Z,12.85
2023-12-01T21:48:39.668Z,10.70
2023-12-01T21:51:07.366Z,12.00
2023-12-01T21:53:36.012Z,17.15
2023-12-01T21:56:02.848Z,12.80
2023-12-01T21:58:30.534Z,11.05
2023-12-01T22:00:57.344Z,10.98
2023-12-01T22:03:24.391Z,12.82
2023-12-01T22:05:51.448Z,11.98
2023-12-01T22:08:18.668Z,16.33
2023-12-01T22:10:45.434Z,12.35
2023-12-01T22:13:12.221Z,12.60
2023-12-01T22:15:39.018Z,12.85
2023-12-01T22:18:06.016Z,11.70
2023-12-01T22:20:33.074Z,10.43
2023-12-01T22:22:59.957Z,11.52
2023-12-01T22:25:26.939Z,11.75
2023-12-01T22:27:53.715Z,12.27
2023-12-01T22:30:20.706Z,11.57
2023-12-01T22:32:47.704Z,12.52
2023-12-01T22:35:14.493Z,13.30
2023-12-01T22:37:41.258Z,12.50
2023-12-01T22:40:09.866Z,10.25
2023-12-01T22:42:36.660Z,9.70
2023-12-01T22:45:05.199Z,10.95
2023-12-01T22:47:34.831Z,10.75
2023-12-01T22:50:01.663Z,9.57
2023-12-01T22:52:28.841Z,10.05
2023-12-01T22:54:56.150Z,8.82
2023-12-01T22:57:23.338Z,9.73
2023-12-01T22:59:50.243Z,10.25
2023-12-01T23:02:17.241Z,9.43
2023-12-01T23:04:44.317Z,10.57
2023-12-01T23:07:11.173Z,10.80
2023-12-01T23:09:37.911Z,8.95
2023-12-01T23:12:05.628Z,10.38
2023-12-01T23:14:32.460Z,10.73
2023-12-01T23:16:59.273Z,12.00
2023-12-01T23:19:26.298Z,12.63
2023-12-01T23:21:53.336Z,11.32
2023-12-01T23:24:20.201Z,14.57
2023-12-01T23:26:47.054Z,13.35
2023-12-01T23:29:14.102Z,14.98
2023-12-01T23:31:40.915Z,11.05
2023-12-01T23:34:07.804Z,10.23
2023-12-01T23:36:34.667Z,10.60
2023-12-01T23:39:01.581Z,11.73
2023-12-01T23:41:28.353Z,11.82
2023-12-01T23:43:55.235Z,10.75
2023-12-01T23:46:22.282Z,12.75
2023-12-01T23:48:49.194Z,12.15
2023-12-01T23:51:16.145Z,13.20
2023-12-01T23:53:43.300Z,13.18
2023-12-01T23:56:10.640Z,12.30
2023-12-01T23:58:37.507Z,12.52
